Time;durP1;ratioP1;P1;durP2;ratioP2;P2;SDS_P1;SDS_P2;PMS_P1;PMS_P2;Temp;Humidity;BMP_temperature;BMP_pressure;BME280_temperature;BME280_humidity;BME280_pressure;Samples;Min_cycle;Max_cycle;Signal;HPM_P1;HPM_P2
2024/02/17 00:04:53;;;;;;;3.45;2.17;;;;;;;12.26;59.90;102171.56;10364112;28;20331;-60
2024/02/17 00:09:54;;;;;;;2.73;1.60;;;;;;;12.26;60.47;102187.53;10377186;28;20132;-60
2024/02/17 00:14:54;;;;;;;3.28;2.05;;;;;;;12.26;60.63;102191.00;10367864;28;20655;-60
2024/02/17 00:19:54;;;;;;;3.03;1.80;;;;;;;12.26;60.25;102198.97;10372776;28;20032;-59
2024/02/17 00:24:55;;;;;;;3.50;2.13;;;;;;;12.25;59.48;102194.69;10371248;28;20038;-59
2024/02/17 00:29:55;;;;;;;3.47;1.70;;;;;;;12.26;59.88;102200.81;10372348;28;20787;-59
2024/02/17 00:34:55;;;;;;;3.97;2.33;;;;;;;12.25;59.82;102202.66;10371077;28;20520;-60
2024/02/17 00:39:57;;;;;;;3.47;1.88;;;;;;;12.25;60.37;102208.00;10370960;28;20664;-60
2024/02/17 00:44:57;;;;;;;2.20;1.48;;;;;;;12.25;59.82;102212.50;10370782;28;20036;-60
2024/02/17 00:49:58;;;;;;;2.72;1.88;;;;;;;12.24;59.76;102211.69;10369917;28;20400;-60
2024/02/17 00:54:58;;;;;;;2.30;1.70;;;;;;;12.25;59.41;102218.63;10370206;28;20022;-60
2024/02/17 00:59:58;;;;;;;2.03;1.40;;;;;;;12.24;59.57;102222.31;10370541;28;20017;-59
2024/02/17 01:04:59;;;;;;;2.13;1.47;;;;;;;12.24;60.34;102232.97;10370087;28;20053;-60
2024/02/17 01:10:00;;;;;;;2.92;1.80;;;;;;;12.23;60.32;102226.00;10382891;28;20315;-60
2024/02/17 01:15:00;;;;;;;3.53;1.60;;;;;;;12.23;60.27;102236.66;10369445;28;20473;-60
2024/02/17 01:20:00;;;;;;;3.25;1.95;;;;;;;12.24;59.94;102242.78;10369579;28;20287;-60
2024/02/17 01:25:01;;;;;;;1.92;1.45;;;;;;;12.23;59.97;102252.59;10368398;28;20557;-59
2024/02/17 01:30:01;;;;;;;2.60;1.87;;;;;;;12.22;60.37;102260.78;10367556;28;20076;-59
2024/02/17 01:35:01;;;;;;;3.22;1.63;;;;;;;12.22;60.85;102266.13;10367946;28;20301;-59
2024/02/17 01:40:03;;;;;;;2.17;1.70;;;;;;;12.22;60.15;102274.09;10368820;28;20504;-59
2024/02/17 01:45:07;;;;;;;3.08;1.65;;;;;;;12.22;59.78;102274.09;10367335;28;20030;-60
2024/02/17 01:50:07;;;;;;;3.33;1.98;;;;;;;12.22;59.87;102276.75;10368408;28;20080;-60
2024/02/17 01:55:08;;;;;;;2.35;1.70;;;;;;;12.21;60.31;102275.13;10366682;28;20117;-60
2024/02/17 02:00:10;;;;;;;2.78;1.80;;;;;;;12.21;59.81;102283.91;10388256;28;20033;-60
2024/02/17 02:05:10;;;;;;;2.72;1.55;;;;;;;12.21;60.05;102288.41;10394278;28;20140;-58
2024/02/17 02:10:10;;;;;;;2.00;1.50;;;;;;;12.20;59.61;102290.28;10397653;28;20137;-60
2024/02/17 02:15:14;;;;;;;2.95;1.80;;;;;;;12.21;60.00;102297.22;10367649;28;20947;-60
2024/02/17 02:20:14;;;;;;;2.47;1.90;;;;;;;12.19;59.51;102299.25;10366364;28;20108;-60
2024/02/17 02:25:25;;;;;;;2.00;1.45;;;;;;;12.20;59.97;102306.22;10393075;28;20112;-60
2024/02/17 02:30:25;;;;;;;2.83;1.60;;;;;;;12.19;60.49;102312.53;10411365;28;20027;-60
2024/02/17 02:35:25;;;;;;;2.78;1.80;;;;;;;12.19;60.29;102317.03;10385670;28;20033;-60
2024/02/17 02:40:26;;;;;;;2.75;2.03;;;;;;;12.20;59.35;102324.84;10364475;28;20053;-60
2024/02/17 02:45:26;;;;;;;2.88;1.65;;;;;;;12.20;59.68;102318.69;10366583;28;20018;-60
2024/02/17 02:50:26;;;;;;;3.63;1.90;;;;;;;12.19;60.68;102333.00;10366174;28;20030;-60
2024/02/17 02:55:27;;;;;;;2.80;1.63;;;;;;;12.18;60.84;102337.50;10366306;28;20079;-60
2024/02/17 03:00:27;;;;;;;3.03;1.60;;;;;;;12.17;59.99;102349.16;10348943;28;20026;-59
2024/02/17 03:05:27;;;;;;;2.90;2.05;;;;;;;12.18;60.21;102355.31;10365145;28;20546;-60
2024/02/17 03:10:28;;;;;;;3.38;1.92;;;;;;;12.18;59.83;102358.78;10377588;28;20104;-60
2024/02/17 03:15:28;;;;;;;3.42;1.85;;;;;;;12.19;59.37;102375.53;10365779;28;20103;-60
2024/02/17 03:20:28;;;;;;;2.22;1.50;;;;;;;12.17;60.35;102370.44;10365615;28;20125;-60
2024/02/17 03:25:29;;;;;;;2.95;1.67;;;;;;;12.17;59.23;102369.63;10365902;28;20382;-60
2024/02/17 03:30:29;;;;;;;2.75;1.83;;;;;;;12.16;60.37;102366.16;10372737;28;20028;-60
2024/02/17 03:35:29;;;;;;;3.88;2.50;;;;;;;12.16;60.35;102370.66;10382708;28;20034;-60
2024/02/17 03:40:30;;;;;;;3.47;1.55;;;;;;;12.16;59.69;102383.94;10384723;28;20052;-60
2024/02/17 03:45:30;;;;;;;3.10;2.05;;;;;;;12.16;59.63;102386.63;10406531;28;20071;-60
2024/02/17 03:50:30;;;;;;;3.42;1.70;;;;;;;12.15;59.95;102391.13;10399497;28;20030;-60
2024/02/17 03:55:31;;;;;;;2.70;1.80;;;;;;;12.15;59.80;102401.75;10373223;28;20026;-60
2024/02/17 04:00:31;;;;;;;3.25;1.80;;;;;;;12.15;59.52;102417.72;10372327;28;20269;-60
2024/02/17 04:05:31;;;;;;;2.35;1.55;;;;;;;12.15;60.55;102425.69;10384858;28;20079;-60
2024/02/17 04:10:32;;;;;;;2.90;2.00;;;;;;;12.14;59.70;102431.22;10398854;28;20057;-60
2024/02/17 04:15:32;;;;;;;2.40;1.65;;;;;;;12.14;59.52;102433.88;10371216;28;20026;-60
2024/02/17 04:20:32;;;;;;;3.13;2.05;;;;;;;12.14;60.08;102433.88;10372018;28;20028;-59
2024/02/17 04:25:35;;;;;;;3.17;1.88;;;;;;;12.13;59.89;102433.06;10372409;28;20025;-60
2024/02/17 04:30:35;;;;;;;2.67;2.10;;;;;;;12.13;59.97;102441.03;10366724;28;20492;-60
2024/02/17 04:35:36;;;;;;;3.63;2.25;;;;;;;12.13;60.29;102445.53;10397980;28;20202;-60
2024/02/17 04:40:36;;;;;;;2.92;1.73;;;;;;;12.13;59.90;102458.84;10412009;28;20038;-60
2024/02/17 04:45:36;;;;;;;3.33;1.92;;;;;;;12.12;60.94;102465.19;10412704;28;20045;-60
2024/02/17 04:50:37;;;;;;;2.95;1.83;;;;;;;12.12;59.69;102475.81;10410391;28;20025;-60
2024/02/17 04:55:37;;;;;;;2.38;1.30;;;;;;;12.12;60.59;102481.94;10411520;28;20033;-60
2024/02/17 05:00:38;;;;;;;3.03;1.95;;;;;;;12.13;59.75;102490.75;10408745;28;20028;-60
2024/02/17 05:05:38;;;;;;;2.47;1.80;;;;;;;12.11;60.07;102493.63;10411115;28;20035;-60
2024/02/17 05:10:39;;;;;;;2.77;1.63;;;;;;;12.11;60.69;102498.94;10409291;28;20319;-59
2024/02/17 05:15:39;;;;;;;3.45;2.00;;;;;;;12.11;59.91;102500.78;10397410;28;20298;-61
2024/02/17 05:20:39;;;;;;;4.13;1.67;;;;;;;12.12;59.90;102518.34;10411058;28;20025;-60
2024/02/17 05:25:40;;;;;;;2.40;1.63;;;;;;;12.11;59.93;102528.19;10410443;28;20763;-60
2024/02/17 05:30:40;;;;;;;2.60;1.50;;;;;;;12.10;60.98;102531.03;10404298;28;20284;-60
2024/02/17 05:35:41;;;;;;;2.57;1.80;;;;;;;12.11;60.50;102540.66;10367561;28;20784;-59
2024/02/17 05:40:41;;;;;;;2.55;1.70;;;;;;;12.10;59.70;102562.94;10366992;28;20283;-60
2024/02/17 05:45:41;;;;;;;2.40;1.50;;;;;;;12.10;60.57;102566.44;10367679;28;20534;-60
2024/02/17 05:50:41;;;;;;;3.33;1.52;;;;;;;12.09;60.69;102562.13;10368447;28;20275;-60
2024/02/17 05:55:42;;;;;;;2.90;1.77;;;;;;;12.09;60.33;102570.13;10367990;28;20030;-60
2024/02/17 06:00:42;;;;;;;2.95;1.80;;;;;;;12.09;60.64;102564.78;10366764;28;20069;-60
2024/02/17 06:05:43;;;;;;;5.27;1.87;;;;;;;12.09;60.71;102571.94;10367738;28;20036;-60
2024/02/17 06:10:43;;;;;;;4.07;2.15;;;;;;;12.10;61.31;102568.28;10379551;28;20320;-60
2024/02/17 06:15:44;;;;;;;2.83;1.70;;;;;;;12.10;60.14;102582.38;10367659;28;20034;-60
2024/02/17 06:26:04;;;;;;;1.67;1.08;;;;;;;12.42;60.05;102603.78;10367434;28;20658;-59
2024/02/17 06:31:04;;;;;;;2.33;1.23;;;;;;;12.56;59.90;102614.22;10367280;28;20026;-60
2024/02/17 06:36:05;;;;;;;2.37;1.33;;;;;;;12.69;59.77;102612.56;10365213;28;20488;-60
2024/02/17 06:41:06;;;;;;;2.97;1.73;;;;;;;12.78;59.33;102625.41;10365583;28;20368;-61
2024/02/17 06:46:07;;;;;;;3.72;1.23;;;;;;;12.89;59.53;102622.09;10363542;28;20022;-60
2024/02/17 06:51:11;;;;;;;1.80;1.17;;;;;;;12.99;58.84;102631.47;10364808;28;20037;-60
2024/02/17 06:56:11;;;;;;;2.30;1.48;;;;;;;13.05;58.63;102639.47;10364183;28;20120;-60
2024/02/17 07:01:12;;;;;;;4.43;1.52;;;;;;;13.21;58.63;102640.03;10366646;28;21251;-60
2024/02/17 07:06:16;;;;;;;2.60;1.60;;;;;;;13.35;58.16;102638.94;10366443;28;20025;-60
2024/02/17 07:11:17;;;;;;;3.10;1.27;;;;;;;13.45;58.05;102658.75;10378839;28;20316;-60
2024/02/17 07:16:17;;;;;;;2.22;1.50;;;;;;;13.51;58.00;102653.63;10365981;28;20044;-59
2024/02/17 07:21:18;;;;;;;6.13;1.97;;;;;;;13.67;57.71;102655.75;10367639;28;20306;-59
2024/02/17 07:26:19;;;;;;;2.50;1.52;;;;;;;13.84;56.95;102670.19;10366192;28;20794;-60
2024/02/17 07:31:20;;;;;;;3.67;2.28;;;;;;;13.98;56.57;102685.09;10368498;28;20036;-61
2024/02/17 07:36:20;;;;;;;2.83;1.35;;;;;;;14.10;56.96;102692.41;10365329;28;20238;-61
2024/02/17 07:41:21;;;;;;;3.13;2.10;;;;;;;14.21;56.36;102707.72;10367119;28;20500;-60
2024/02/17 07:46:21;;;;;;;2.63;1.95;;;;;;;14.29;56.25;102710.09;10366541;28;20111;-60
2024/02/17 07:51:22;;;;;;;3.93;1.83;;;;;;;14.42;56.61;102730.50;10366463;28;20026;-61
2024/02/17 07:56:23;;;;;;;3.63;1.73;;;;;;;14.48;55.47;102735.84;10366904;28;20315;-60
2024/02/17 08:01:24;;;;;;;4.25;1.63;;;;;;;14.56;55.36;102751.59;10348221;28;20287;-60
2024/02/17 08:06:24;;;;;;;2.58;1.45;;;;;;;14.65;55.91;102765.47;10366720;28;20030;-60
2024/02/17 08:11:25;;;;;;;2.80;1.30;;;;;;;14.69;55.81;102766.69;10378674;28;20046;-60
2024/02/17 08:16:26;;;;;;;3.10;1.73;;;;;;;14.79;54.87;102774.16;10366447;28;20308;-60
2024/02/17 08:21:26;;;;;;;2.80;1.40;;;;;;;14.80;55.50;102768.63;10364797;28;20037;-60
2024/02/17 08:26:27;;;;;;;3.23;1.73;;;;;;;14.85;54.77;102765.28;10366245;28;20682;-61
2024/02/17 08:31:27;;;;;;;2.05;1.10;;;;;;;14.99;54.82;102784.66;10365775;28;20331;-60
2024/02/17 08:36:28;;;;;;;1.67;0.90;;;;;;;15.03;54.94;102775.16;10370122;28;20676;-61
2024/02/17 08:41:29;;;;;;;4.03;1.17;;;;;;;15.07;54.06;102795.91;10371381;28;20060;-60
2024/02/17 08:46:29;;;;;;;2.55;1.60;;;;;;;15.12;54.48;102801.38;10371695;28;20030;-60
2024/02/17 08:51:30;;;;;;;2.78;1.10;;;;;;;15.20;54.39;102811.78;10372782;28;20037;-60
2024/02/17 08:56:30;;;;;;;2.83;1.17;;;;;;;15.21;54.69;102816.09;10371284;28;20105;-60
2024/02/17 09:01:30;;;;;;;1.90;1.37;;;;;;;15.29;53.81;102809.66;10372097;28;20400;-60
2024/02/17 09:06:31;;;;;;;2.53;1.40;;;;;;;15.32;54.37;102814.53;10372240;28;20356;-61
2024/02/17 09:11:31;;;;;;;1.92;1.10;;;;;;;15.37;55.05;102827.22;10406782;28;20045;-60
2024/02/17 09:16:31;;;;;;;2.93;1.20;;;;;;;15.49;53.34;102839.63;10412892;28;20044;-60
2024/02/17 09:21:32;;;;;;;1.98;1.10;;;;;;;15.48;54.23;102832.66;10412251;28;20345;-60
2024/02/17 09:26:32;;;;;;;3.08;1.40;;;;;;;15.54;53.49;102835.50;10411181;28;20030;-60
2024/02/17 09:31:33;;;;;;;2.05;0.98;;;;;;;15.58;53.71;102840.16;10398512;28;20367;-60
2024/02/17 09:36:33;;;;;;;2.07;1.20;;;;;;;15.62;54.26;102849.38;10371429;28;20028;-61
2024/02/17 09:41:33;;;;;;;2.57;1.47;;;;;;;15.73;53.89;102853.19;10370581;28;20272;-61
2024/02/17 09:46:35;;;;;;;1.90;0.80;;;;;;;15.78;54.20;102859.50;10369212;28;20268;-61
2024/02/17 09:51:36;;;;;;;1.88;0.80;;;;;;;15.78;54.14;102867.53;10369033;28;20281;-61
2024/02/17 09:56:36;;;;;;;2.38;1.20;;;;;;;15.84;53.17;102868.47;10370168;28;20037;-61
2024/02/17 10:01:36;;;;;;;2.40;0.80;;;;;;;15.86;53.16;102869.06;10368914;28;20488;-60
2024/02/17 10:06:37;;;;;;;1.80;0.87;;;;;;;15.92;53.30;102865.50;10370003;28;20277;-61
2024/02/17 10:11:37;;;;;;;2.53;1.52;;;;;;;15.97;53.85;102857.59;10381459;28;20353;-60
2024/02/17 10:16:38;;;;;;;3.03;0.93;;;;;;;16.04;53.45;102870.91;10368006;28;20028;-60
2024/02/17 10:21:39;;;;;;;2.87;0.97;;;;;;;16.13;52.66;102866.06;10382375;28;20072;-60
2024/02/17 10:26:39;;;;;;;1.50;0.80;;;;;;;16.11;52.84;102873.53;10406269;28;20272;-61
2024/02/17 10:31:42;;;;;;;1.40;1.00;;;;;;;16.15;53.42;102872.00;10396027;28;20031;-60
2024/02/17 10:36:43;;;;;;;1.55;0.90;;;;;;;16.18;52.53;102882.25;10367130;28;20505;-61
2024/02/17 10:41:46;;;;;;;1.23;0.63;;;;;;;16.21;52.53;102889.84;10396522;28;20018;-61
2024/02/17 10:46:47;;;;;;;2.05;0.93;;;;;;;16.22;53.61;102894.13;10407348;28;20057;-61
2024/02/17 10:51:57;;;;;;;1.63;0.60;;;;;;;16.32;53.86;102902.44;10359988;28;20096;-61
2024/02/17 10:57:01;;;;;;;2.88;1.20;;;;;;;16.34;53.72;102914.59;10365354;28;20034;-61
2024/02/17 11:02:02;;;;;;;1.55;0.77;;;;;;;16.32;52.52;102915.84;10366321;28;20026;-61
2024/02/17 11:07:03;;;;;;;1.42;0.70;;;;;;;16.43;52.98;102919.59;10389015;28;20021;-61
2024/02/17 11:12:33;;;;;;;1.42;1.25;;;;;;;16.44;53.49;102924.72;10382423;28;20048;-61
2024/02/17 11:17:50;;;;;;;1.58;0.82;;;;;;;16.48;52.88;102928.59;10364282;28;20038;-61
2024/02/17 11:22:50;;;;;;;1.75;0.90;;;;;;;16.53;53.00;102931.41;10365540;28;20033;-61
2024/02/17 11:27:50;;;;;;;2.10;1.10;;;;;;;16.54;52.95;102935.72;10366221;28;20457;-61
2024/02/17 11:32:57;;;;;;;1.53;0.70;;;;;;;16.58;51.91;102938.78;10368290;28;20053;-61
2024/02/17 11:37:57;;;;;;;1.30;0.70;;;;;;;16.66;51.94;102946.47;10367045;28;20640;-61
2024/02/17 11:42:58;;;;;;;1.13;0.50;;;;;;;16.65;52.69;102963.59;10404978;28;20040;-61
2024/02/17 11:47:58;;;;;;;1.25;0.63;;;;;;;16.69;52.14;102963.97;10406500;28;20052;-60
2024/02/17 11:52:59;;;;;;;1.77;0.60;;;;;;;16.69;53.52;102963.97;10407992;28;20040;-61
2024/02/17 11:58:00;;;;;;;1.42;0.57;;;;;;;16.75;52.02;102963.91;10404619;28;20806;-61
2024/02/17 12:03:01;;;;;;;1.70;0.88;;;;;;;16.77;52.66;102969.84;10407489;28;20104;-61
2024/02/17 12:08:02;;;;;;;1.45;0.70;;;;;;;16.82;52.01;102970.00;10406620;28;20044;-61
2024/02/17 12:13:05;;;;;;;1.40;0.70;;;;;;;16.86;52.04;102965.78;10379633;28;20041;-61
2024/02/17 12:18:06;;;;;;;1.40;0.70;;;;;;;16.89;52.18;102968.00;10371361;28;20456;-61
2024/02/17 12:23:08;;;;;;;1.08;0.75;;;;;;;16.89;52.67;102976.03;10373804;28;20014;-60
2024/02/17 12:28:09;;;;;;;1.50;0.75;;;;;;;16.92;53.02;102964.88;10372707;28;20361;-60
2024/02/17 12:33:09;;;;;;;3.80;0.82;;;;;;;16.98;53.07;102973.06;10371753;28;20034;-61
2024/02/17 12:38:10;;;;;;;1.45;0.70;;;;;;;16.99;53.07;102972.81;10370938;28;20029;-60
2024/02/17 12:43:19;;;;;;;4.47;1.23;;;;;;;17.01;52.49;102978.75;10371919;28;20025;-61
2024/02/17 12:48:20;;;;;;;1.20;0.77;;;;;;;16.98;52.95;102981.91;10373278;28;20285;-61
2024/02/17 12:53:23;;;;;;;1.50;0.70;;;;;;;17.08;52.46;102979.47;10372643;28;20050;-61
2024/02/17 12:58:23;;;;;;;1.33;0.70;;;;;;;17.10;52.09;102980.06;10405515;28;20033;-60
2024/02/17 13:03:24;;;;;;;1.85;1.00;;;;;;;17.13;51.79;102989.50;10413326;28;20572;-61
2024/02/17 13:08:25;;;;;;;2.25;0.80;;;;;;;17.17;52.84;102982.66;10369378;28;20046;-60
2024/02/17 13:13:27;;;;;;;0.80;0.50;;;;;;;17.16;51.85;102981.00;10375685;28;20428;-61
2024/02/17 13:18:27;;;;;;;2.42;0.80;;;;;;;17.19;51.96;102986.72;10371609;28;20642;-61
2024/02/17 13:23:27;;;;;;;1.40;0.50;;;;;;;17.20;51.93;102980.31;10368202;28;20026;-61
2024/02/17 13:28:28;;;;;;;2.17;1.00;;;;;;;17.22;52.85;102980.91;10371698;28;20022;-61
2024/02/17 13:33:28;;;;;;;2.23;1.00;;;;;;;17.28;51.37;102968.41;10395713;28;20109;-60
2024/02/17 13:38:28;;;;;;;1.43;0.60;;;;;;;17.26;51.52;102967.84;10369957;28;20817;-61
2024/02/17 13:43:29;;;;;;;0.93;0.60;;;;;;;17.33;52.19;102978.47;10371036;28;20281;-61
2024/02/17 13:48:29;;;;;;;1.60;0.70;;;;;;;17.35;52.52;102974.50;10369524;28;20744;-61
2024/02/17 13:53:29;;;;;;;2.00;0.77;;;;;;;17.40;51.87;102984.53;10370251;28;20289;-61
2024/02/17 13:58:30;;;;;;;1.83;1.13;;;;;;;17.45;52.14;102992.72;10370544;28;20372;-61
2024/02/17 14:03:30;;;;;;;1.48;0.80;;;;;;;17.43;51.26;102989.44;10367808;28;20268;-60
2024/02/17 14:08:30;;;;;;;1.90;0.50;;;;;;;17.47;51.25;102987.91;10374036;28;20049;-61
2024/02/17 14:13:31;;;;;;;1.83;0.80;;;;;;;17.46;52.46;102994.34;10372362;28;20021;-61
2024/02/17 14:18:31;;;;;;;2.20;0.73;;;;;;;17.44;51.77;102988.41;10369511;28;20065;-60
2024/02/17 14:23:31;;;;;;;1.60;0.80;;;;;;;17.49;51.23;102986.63;10369345;28;20277;-60
2024/02/17 14:28:32;;;;;;;1.67;0.80;;;;;;;17.47;52.49;102991.41;10383123;28;20283;-61
2024/02/17 14:33:32;;;;;;;2.10;1.10;;;;;;;17.49;52.66;102991.19;10381683;28;20285;-61
2024/02/17 14:38:33;;;;;;;1.30;0.80;;;;;;;17.52;52.24;102998.75;10367282;28;20293;-60
2024/02/17 14:43:34;;;;;;;1.23;0.70;;;;;;;17.56;52.70;102991.09;10357174;28;20280;-61
2024/02/17 14:48:35;;;;;;;2.53;1.00;;;;;;;17.62;52.06;103000.88;10366668;28;20073;-61
2024/02/17 14:53:35;;;;;;;2.50;0.70;;;;;;;17.66;51.39;102999.38;10368559;28;20568;-61
2024/02/17 14:58:36;;;;;;;1.20;0.90;;;;;;;17.67;52.52;103004.50;10366677;28;20549;-60
2024/02/17 15:03:36;;;;;;;1.20;0.52;;;;;;;17.69;52.34;103004.28;10367880;28;20660;-61
2024/02/17 15:08:36;;;;;;;1.42;0.82;;;;;;;17.68;52.47;103013.38;10376757;28;20042;-61
2024/02/17 15:13:37;;;;;;;1.43;0.60;;;;;;;17.68;51.17;103018.72;10383344;28;20080;-61
2024/02/17 15:18:37;;;;;;;2.50;1.13;;;;;;;17.67;51.21;103019.78;10367783;28;20292;-62
2024/02/17 15:23:38;;;;;;;1.40;0.80;;;;;;;17.74;52.23;103028.53;10366497;28;20652;-61
2024/02/17 15:28:38;;;;;;;1.52;0.70;;;;;;;17.78;52.24;103024.38;10369469;28;20033;-61
2024/02/17 15:33:39;;;;;;;1.73;1.00;;;;;;;17.78;50.68;103027.03;10378176;28;20030;-61
2024/02/17 15:38:40;;;;;;;1.70;0.90;;;;;;;17.82;50.79;103022.84;10363307;28;20299;-61
2024/02/17 15:43:40;;;;;;;1.70;0.80;;;;;;;17.83;51.61;103030.66;10366254;28;20022;-61
2024/02/17 15:48:40;;;;;;;1.27;0.60;;;;;;;17.86;51.30;103036.59;10375206;28;20315;-61
2024/02/17 15:53:40;;;;;;;1.50;0.80;;;;;;;17.85;51.83;103038.47;10395023;28;20105;-61
2024/02/17 15:58:41;;;;;;;1.47;0.80;;;;;;;17.79;51.37;103034.84;10392036;28;20370;-61
2024/02/17 16:03:41;;;;;;;1.20;0.60;;;;;;;17.83;52.62;103037.88;10374931;28;20321;-61
2024/02/17 16:08:41;;;;;;;1.47;0.87;;;;;;;17.87;50.84;103041.72;10384687;28;20708;-61
2024/02/17 16:13:47;;;;;;;2.45;1.02;;;;;;;17.89;52.44;103042.34;10387205;28;20316;-61
2024/02/17 16:18:50;;;;;;;0.90;0.52;;;;;;;17.89;52.10;103036.16;10372428;28;20041;-61
2024/02/17 16:23:50;;;;;;;1.38;0.70;;;;;;;17.94;50.68;103034.38;10373221;28;20397;-61
2024/02/17 16:28:50;;;;;;;1.40;0.90;;;;;;;17.95;51.12;103041.38;10372784;28;20025;-61
2024/02/17 16:33:51;;;;;;;1.67;0.80;;;;;;;17.95;50.97;103038.69;10399745;28;20026;-61
2024/02/17 16:39:07;;;;;;;1.65;0.77;;;;;;;17.93;51.05;103038.13;10387047;28;20632;-61
2024/02/17 16:44:07;;;;;;;2.33;0.90;;;;;;;17.96;51.57;103018.84;10384957;28;20041;-61
2024/02/17 16:49:07;;;;;;;2.70;1.40;;;;;;;17.93;50.76;103024.69;10384454;28;20026;-61
2024/02/17 16:54:08;;;;;;;2.40;1.30;;;;;;;17.99;51.15;103023.75;10372421;28;20338;-61
2024/02/17 16:59:08;;;;;;;1.92;1.20;;;;;;;18.02;51.33;103014.44;10371496;28;20696;-61
2024/02/17 17:04:08;;;;;;;1.53;0.87;;;;;;;18.07;51.51;103023.41;10370973;28;20076;-61
2024/02/17 17:09:09;;;;;;;2.40;0.90;;;;;;;18.06;51.53;103034.38;10387103;28;20296;-61
2024/02/17 17:14:09;;;;;;;1.37;0.90;;;;;;;18.08;51.92;103029.56;10382952;28;20527;-61
2024/02/17 17:19:09;;;;;;;3.10;0.80;;;;;;;18.02;51.21;103025.97;10372149;28;20290;-61
2024/02/17 17:24:10;;;;;;;1.25;1.00;;;;;;;18.05;50.80;103022.81;10370778;28;20276;-61
2024/02/17 17:29:10;;;;;;;4.00;1.10;;;;;;;18.09;51.73;103015.91;10369917;28;20026;-61
2024/02/17 17:34:10;;;;;;;2.47;1.27;;;;;;;18.12;51.21;103025.38;10368729;28;20284;-61
2024/02/17 17:39:11;;;;;;;2.00;1.23;;;;;;;18.11;50.68;103019.22;10367999;28;20029;-61
2024/02/17 17:44:12;;;;;;;2.80;0.90;;;;;;;18.16;50.95;103018.47;10368745;28;20280;-61
2024/02/17 17:49:12;;;;;;;1.53;1.00;;;;;;;18.12;51.41;103017.34;10367291;28;20025;-61
2024/02/17 17:54:12;;;;;;;1.80;1.35;;;;;;;18.16;51.27;103025.72;10367952;28;20640;-61
2024/02/17 17:59:15;;;;;;;1.83;1.25;;;;;;;18.18;51.80;103026.31;10368173;28;20416;-60
2024/02/17 18:04:15;;;;;;;2.58;1.50;;;;;;;18.20;51.34;103034.94;10367218;28;20026;-60
2024/02/17 18:09:16;;;;;;;3.00;1.77;;;;;;;18.22;50.96;103030.13;10382132;28;20496;-61
2024/02/17 18:14:17;;;;;;;2.63;1.65;;;;;;;18.28;51.39;103027.34;10376234;28;20293;-61
2024/02/17 18:19:18;;;;;;;4.65;2.15;;;;;;;18.24;51.24;103028.06;10380411;28;20017;-61
2024/02/17 18:24:18;;;;;;;2.67;1.90;;;;;;;18.22;50.83;103024.75;10400363;28;20799;-61
2024/02/17 18:29:18;;;;;;;2.20;1.50;;;;;;;18.23;51.06;103032.59;10407693;28;20392;-60
2024/02/17 18:34:19;;;;;;;2.47;1.70;;;;;;;18.25;51.19;103024.31;10398492;28;20567;-61
2024/02/17 18:39:19;;;;;;;2.47;1.30;;;;;;;18.32;50.76;103033.84;10366613;28;20164;-61
2024/02/17 18:44:21;;;;;;;3.13;1.83;;;;;;;18.35;51.01;103048.66;10366229;28;20751;-60
2024/02/17 18:49:21;;;;;;;2.78;2.00;;;;;;;18.34;50.25;103044.34;10379757;28;20312;-61
2024/02/17 18:54:22;;;;;;;2.25;1.52;;;;;;;18.32;50.79;103043.78;10405761;28;20034;-61
2024/02/17 18:59:22;;;;;;;2.70;1.83;;;;;;;18.29;51.72;103046.94;10407073;28;20075;-61
2024/02/17 19:04:23;;;;;;;3.13;1.97;;;;;;;18.35;51.08;103048.66;10406888;28;20049;-61
2024/02/17 19:09:23;;;;;;;3.22;1.70;;;;;;;18.38;51.71;103040.97;10387805;28;20301;-61
2024/02/17 19:14:25;;;;;;;2.90;1.83;;;;;;;18.44;50.15;103041.06;10366068;28;21127;-61
2024/02/17 19:19:26;;;;;;;3.88;2.28;;;;;;;18.44;50.82;103036.50;10363221;28;20033;-61
2024/02/17 19:24:27;;;;;;;4.78;2.65;;;;;;;18.40;50.41;103044.22;10365521;28;20025;-61
2024/02/17 19:29:28;;;;;;;4.25;2.80;;;;;;;18.44;50.56;103033.00;10378588;28;20025;-61
2024/02/17 19:34:28;;;;;;;3.67;2.53;;;;;;;18.48;51.29;103039.56;10365602;28;20026;-61
2024/02/17 19:39:30;;;;;;;3.50;2.33;;;;;;;18.52;50.60;103038.84;10363651;28;20038;-61
2024/02/17 19:44:31;;;;;;;3.20;2.53;;;;;;;18.53;50.91;103037.78;10365281;28;20222;-61
2024/02/17 19:49:31;;;;;;;3.67;2.60;;;;;;;18.55;51.53;103032.97;10362546;28;20021;-61
2024/02/17 19:54:33;;;;;;;3.22;2.42;;;;;;;18.49;51.13;103036.63;10363208;28;20288;-61
2024/02/17 19:59:33;;;;;;;2.92;2.08;;;;;;;18.49;51.38;103041.19;10364709;28;20504;-61
2024/02/17 20:04:35;;;;;;;4.40;2.63;;;;;;;18.51;50.18;103033.69;10364978;28;20022;-60
2024/02/17 20:09:36;;;;;;;4.18;2.67;;;;;;;18.56;51.43;103037.28;10376877;28;20096;-61
2024/02/17 20:14:36;;;;;;;3.42;2.67;;;;;;;18.59;50.95;103034.16;10383861;28;20022;-61
2024/02/17 20:19:36;;;;;;;3.03;2.07;;;;;;;18.60;50.05;103035.78;10405740;28;20033;-61
2024/02/17 20:24:37;;;;;;;3.88;2.55;;;;;;;18.57;50.59;103036.22;10405806;28;20643;-61
2024/02/17 20:29:38;;;;;;;3.17;2.25;;;;;;;18.54;51.43;103044.78;10404276;28;20387;-61
2024/02/17 20:34:38;;;;;;;3.42;2.03;;;;;;;18.58;50.94;103042.41;10375369;28;20037;-61
2024/02/17 20:39:38;;;;;;;2.57;1.93;;;;;;;18.56;50.95;103045.34;10372385;28;20040;-61
2024/02/17 20:44:39;;;;;;;2.43;2.00;;;;;;;18.65;50.78;103045.81;10371952;28;20265;-61
2024/02/17 20:49:39;;;;;;;2.88;1.95;;;;;;;18.64;50.84;103046.88;10372006;28;20288;-61
2024/02/17 20:54:39;;;;;;;2.67;1.83;;;;;;;18.66;50.30;103050.16;10371444;28;20053;-61
2024/02/17 20:59:41;;;;;;;2.70;1.93;;;;;;;18.61;51.47;103045.47;10371528;28;20772;-61
2024/02/17 21:04:41;;;;;;;3.13;1.90;;;;;;;18.61;51.02;103050.03;10370102;28;20381;-61
2024/02/17 21:09:42;;;;;;;2.55;1.75;;;;;;;18.66;50.41;103040.22;10383240;28;20069;-61
2024/02/17 21:14:45;;;;;;;1.80;1.33;;;;;;;18.72;50.57;103043.81;10369961;28;20288;-61
2024/02/17 21:19:45;;;;;;;3.28;1.75;;;;;;;18.76;50.60;103036.09;10369926;28;20037;-61
2024/02/17 21:24:46;;;;;;;1.80;1.50;;;;;;;18.73;50.29;103028.53;10363746;28;20025;-61
2024/02/17 21:29:49;;;;;;;2.70;1.30;;;;;;;18.70;50.96;103019.03;10369216;28;20053;-59
2024/02/17 21:34:50;;;;;;;1.83;1.38;;;;;;;18.73;50.46;103015.06;10369648;28;20293;-61
2024/02/17 21:39:51;;;;;;;3.33;1.45;;;;;;;18.73;50.93;103015.06;10367565;28;20550;-61
2024/02/17 21:44:51;;;;;;;3.10;1.70;;;;;;;18.77;51.27;103010.84;10368366;28;20261;-61
2024/02/17 21:49:52;;;;;;;2.80;1.70;;;;;;;18.80;50.73;103008.47;10368937;28;20379;-61
2024/02/17 21:54:52;;;;;;;2.53;1.50;;;;;;;18.80;50.06;103004.97;10367011;28;20033;-61
2024/02/17 21:59:52;;;;;;;2.58;1.60;;;;;;;18.76;50.80;103010.03;10373976;28;20029;-61
2024/02/17 22:04:53;;;;;;;3.13;1.40;;;;;;;18.73;50.53;103013.22;10395964;28;20022;-61
2024/02/17 22:09:53;;;;;;;2.58;1.52;;;;;;;18.62;51.08;103012.16;10407338;28;20060;-61
2024/02/17 22:14:53;;;;;;;2.43;1.43;;;;;;;18.59;50.80;103006.47;10372857;28;20040;-61
2024/02/17 22:19:54;;;;;;;1.73;1.10;;;;;;;18.55;51.57;103018.72;10367459;28;20390;-61
2024/02/17 22:24:54;;;;;;;2.42;1.55;;;;;;;18.50;51.34;103000.66;10367733;28;20806;-61
2024/02/17 22:29:54;;;;;;;1.37;1.10;;;;;;;18.48;52.02;103007.31;10367371;28;20470;-61
2024/02/17 22:34:55;;;;;;;2.27;1.30;;;;;;;18.39;51.64;103002.31;10366077;28;20301;-61
2024/02/17 22:39:55;;;;;;;2.00;1.10;;;;;;;18.41;51.32;103005.56;10367206;28;20030;-61
2024/02/17 22:44:56;;;;;;;1.98;1.40;;;;;;;18.36;51.89;102992.06;10367027;28;20276;-61
2024/02/17 22:49:57;;;;;;;1.50;1.10;;;;;;;18.39;51.43;102991.56;10365362;28;20022;-61
2024/02/17 22:54:57;;;;;;;1.98;1.35;;;;;;;18.36;52.19;102980.50;10366393;28;20292;-61
2024/02/17 22:59:57;;;;;;;2.53;1.80;;;;;;;18.31;51.72;102980.38;10365220;28;20025;-61
2024/02/17 23:04:58;;;;;;;2.13;1.30;;;;;;;18.30;52.55;102978.75;10364443;28;20358;-61
2024/02/17 23:09:58;;;;;;;1.70;1.30;;;;;;;18.28;51.95;102976.31;10377726;28;20045;-61